createdAt,value
2018-02-08T05:00:43.799Z,1013.69
2018-02-08T05:01:09.312Z,1013.67
2018-02-08T05:01:34.823Z,1013.74
2018-02-08T05:02:00.315Z,1013.73
2018-02-08T05:02:25.807Z,1013.78
2018-02-08T05:02:51.325Z,1013.71
2018-02-08T05:03:16.774Z,1013.69
2018-02-08T05:03:42.276Z,1013.71
2018-02-08T05:04:07.760Z,1013.68
2018-02-08T05:04:33.237Z,1013.68
2018-02-08T05:04:58.723Z,1013.73
2018-02-08T05:05:24.235Z,1013.64
2018-02-08T05:06:27.866Z,1013.68
2018-02-08T05:06:53.340Z,1013.66
2018-02-08T05:07:18.844Z,1013.62
2018-02-08T05:07:44.344Z,1013.64
2018-02-08T05:08:09.815Z,1013.66
2018-02-08T05:08:35.298Z,1013.7
2018-02-08T05:09:49.415Z,1013.68
2018-02-08T05:10:14.940Z,1013.72
2018-02-08T05:10:40.470Z,1013.68
2018-02-08T05:11:05.903Z,1013.73
2018-02-08T05:11:31.411Z,1013.68
2018-02-08T05:11:56.881Z,1013.67
2018-02-08T05:12:22.371Z,1013.71
2018-02-08T05:12:47.827Z,1013.71
2018-02-08T05:13:13.264Z,1013.73
2018-02-08T05:13:38.810Z,1013.69
2018-02-08T05:14:04.292Z,1013.66
2018-02-08T05:14:29.759Z,1013.71
2018-02-08T05:14:55.262Z,1013.68
2018-02-08T05:15:20.760Z,1013.72
2018-02-08T05:16:24.309Z,1013.72
2018-02-08T05:16:49.771Z,1013.7
2018-02-08T05:17:15.282Z,1013.72
2018-02-08T05:17:40.761Z,1013.7
2018-02-08T05:18:06.276Z,1013.73
2018-02-08T05:18:31.759Z,1013.77
2018-02-08T05:18:57.226Z,1013.72
2018-02-08T05:19:22.705Z,1013.72
2018-02-08T05:19:48.170Z,1013.74
2018-02-08T05:20:13.671Z,1013.76
2018-02-08T05:20:39.294Z,1013.79
2018-02-08T05:21:04.772Z,1013.78
2018-02-08T05:21:30.244Z,1013.75
2018-02-08T05:21:55.744Z,1013.76
2018-02-08T05:22:21.256Z,1013.8
2018-02-08T05:22:46.717Z,1013.78
2018-02-08T05:23:12.314Z,1013.83
2018-02-08T05:23:37.810Z,1013.77
2018-02-08T05:24:03.365Z,1013.79
2018-02-08T05:24:29.018Z,1013.8
2018-02-08T05:24:54.494Z,1013.79
2018-02-08T05:25:19.966Z,1013.81
2018-02-08T05:25:45.449Z,1013.77
2018-02-08T05:26:10.932Z,1013.77
2018-02-08T05:26:36.408Z,1013.77
2018-02-08T05:27:01.920Z,1013.77
2018-02-08T05:27:27.420Z,1013.77
2018-02-08T05:27:52.913Z,1013.79
2018-02-08T05:28:18.400Z,1013.77
2018-02-08T05:28:43.898Z,1013.79
2018-02-08T05:29:09.407Z,1013.79
2018-02-08T05:29:34.956Z,1013.76
2018-02-08T05:30:00.418Z,1013.78
2018-02-08T05:30:25.907Z,1013.77
2018-02-08T05:30:51.368Z,1013.82
2018-02-08T05:31:16.847Z,1013.78
2018-02-08T05:31:42.324Z,1013.83
2018-02-08T05:32:07.804Z,1013.82
2018-02-08T05:32:33.325Z,1013.83
2018-02-08T05:32:59.014Z,1013.84
2018-02-08T05:33:24.495Z,1013.85
2018-02-08T05:33:50.004Z,1013.84
2018-02-08T05:34:15.484Z,1013.81
2018-02-08T05:34:40.975Z,1013.86
2018-02-08T05:35:06.483Z,1013.8
2018-02-08T05:35:31.953Z,1013.84
2018-02-08T05:35:57.458Z,1013.84
2018-02-08T05:36:22.939Z,1013.83
2018-02-08T05:36:48.444Z,1013.85
2018-02-08T05:37:13.902Z,1013.85
2018-02-08T05:37:39.413Z,1013.91
2018-02-08T05:38:37.953Z,1013.9
2018-02-08T05:39:03.483Z,1013.87
2018-02-08T05:39:28.957Z,1013.88
2018-02-08T05:39:54.419Z,1013.89
2018-02-08T05:40:19.913Z,1013.87
2018-02-08T05:40:45.406Z,1013.89
2018-02-08T05:41:10.858Z,1013.89
2018-02-08T05:41:36.361Z,1013.84
2018-02-08T05:42:01.862Z,1013.9
2018-02-08T05:42:27.312Z,1013.84
2018-02-08T05:42:52.822Z,1013.88
2018-02-08T05:43:18.349Z,1013.91
2018-02-08T05:43:43.829Z,1013.86
2018-02-08T05:44:09.298Z,1013.85
2018-02-08T05:44:34.789Z,1013.85
2018-02-08T05:45:00.355Z,1013.86
2018-02-08T05:45:25.884Z,1013.88
2018-02-08T05:46:39.155Z,1013.87
2018-02-08T05:47:04.738Z,1013.84
2018-02-08T05:47:30.209Z,1013.87
2018-02-08T05:47:55.700Z,1013.88
2018-02-08T05:48:21.158Z,1013.84
2018-02-08T05:49:34.955Z,1013.87
2018-02-08T05:50:00.437Z,1013.86
2018-02-08T05:50:25.948Z,1013.85
2018-02-08T05:50:51.478Z,1013.89
2018-02-08T05:51:17.693Z,1013.84
2018-02-08T05:51:43.085Z,1013.86
2018-02-08T05:52:08.635Z,1013.87
2018-02-08T05:52:34.173Z,1013.88
2018-02-08T05:52:59.706Z,1013.88
2018-02-08T05:53:25.128Z,1013.88
2018-02-08T05:53:50.691Z,1013.9
2018-02-08T05:54:16.249Z,1013.92
2018-02-08T05:54:41.796Z,1013.92
2018-02-08T05:55:07.253Z,1013.95
2018-02-08T05:55:32.718Z,1013.96
2018-02-08T05:55:58.465Z,1013.99
2018-02-08T05:57:17.460Z,1013.93
2018-02-08T05:57:42.949Z,1013.95
2018-02-08T05:58:08.590Z,1013.95
2018-02-08T05:58:34.058Z,1013.97
2018-02-08T05:58:59.590Z,1013.96
2018-02-08T05:59:25.124Z,1013.96
2018-02-08T05:59:50.677Z,1013.98
2018-02-08T06:00:16.572Z,1013.97
2018-02-08T06:00:42.001Z,1013.98
2018-02-08T06:01:07.472Z,1014
2018-02-08T06:01:32.877Z,1014
2018-02-08T06:01:58.352Z,1014.03
2018-02-08T06:02:23.864Z,1013.98
2018-02-08T06:02:49.355Z,1013.98
2018-02-08T06:03:14.827Z,1014.04
2018-02-08T06:03:40.299Z,1014.03
2018-02-08T06:04:05.771Z,1014.02
2018-02-08T06:04:31.243Z,1014
2018-02-08T06:04:57.016Z,1014.03
2018-02-08T06:05:22.511Z,1014.04
2018-02-08T06:05:47.996Z,1013.98
2018-02-08T06:06:13.503Z,1014.01
2018-02-08T06:06:38.995Z,1014.05
2018-02-08T06:07:04.466Z,1014.03
2018-02-08T06:07:29.934Z,1014.01
2018-02-08T06:07:55.417Z,1013.99
2018-02-08T06:08:20.868Z,1013.96
2018-02-08T06:08:46.429Z,1014.01
2018-02-08T06:09:11.917Z,1013.99
2018-02-08T06:09:37.381Z,1014.02
2018-02-08T06:10:02.900Z,1013.99
2018-02-08T06:10:28.408Z,1014.03
2018-02-08T06:10:54.019Z,1014.02
2018-02-08T06:11:19.514Z,1014.04
2018-02-08T06:11:44.984Z,1013.99
2018-02-08T06:12:10.488Z,1014.06
2018-02-08T06:12:36.009Z,1014.06
2018-02-08T06:13:01.507Z,1014.05
2018-02-08T06:13:26.981Z,1014.03
2018-02-08T06:13:52.455Z,1014.04
2018-02-08T06:14:17.946Z,1014
2018-02-08T06:14:43.423Z,1014.01
2018-02-08T06:15:09.457Z,1014.02
2018-02-08T06:15:34.927Z,1014.04
2018-02-08T06:16:00.375Z,1014.06
2018-02-08T06:16:25.870Z,1014
2018-02-08T06:16:51.337Z,1014.05
2018-02-08T06:17:16.808Z,1014.06
2018-02-08T06:17:42.266Z,1014.06
2018-02-08T06:18:07.735Z,1014.1
2018-02-08T06:18:33.212Z,1014.1
2018-02-08T06:18:58.875Z,1014.12
2018-02-08T06:19:24.594Z,1014.08
2018-02-08T06:19:50.083Z,1014.11
2018-02-08T06:20:15.519Z,1014.14
2018-02-08T06:20:40.995Z,1014.12
2018-02-08T06:21:06.507Z,1014.07
2018-02-08T06:21:32.040Z,1014.14
2018-02-08T06:21:57.618Z,1014.15
2018-02-08T06:22:23.110Z,1014.11
2018-02-08T06:22:48.595Z,1014.1
2018-02-08T06:23:14.075Z,1014.13
2018-02-08T06:23:39.602Z,1014.16
2018-02-08T06:24:05.123Z,1014.12
2018-02-08T06:24:30.640Z,1014.13
2018-02-08T06:24:56.124Z,1014.14
2018-02-08T06:25:21.566Z,1014.18
2018-02-08T06:25:47.058Z,1014.14
2018-02-08T06:26:12.557Z,1014.16
2018-02-08T06:26:38.019Z,1014.13
2018-02-08T06:27:03.537Z,1014.2
2018-02-08T06:27:29.013Z,1014.14
2018-02-08T06:27:54.491Z,1014.17
2018-02-08T06:28:19.960Z,1014.17
2018-02-08T06:29:18.514Z,1014.17
2018-02-08T06:29:44.004Z,1014.19
2018-02-08T06:30:09.502Z,1014.22
2018-02-08T06:30:35.012Z,1014.18
2018-02-08T06:31:00.455Z,1014.14
2018-02-08T06:31:25.993Z,1014.2
2018-02-08T06:31:51.459Z,1014.18
2018-02-08T06:32:16.940Z,1014.18
2018-02-08T06:32:42.646Z,1014.17
2018-02-08T06:33:08.185Z,1014.18
2018-02-08T06:33:33.717Z,1014.15
2018-02-08T06:33:59.201Z,1014.15
2018-02-08T06:34:24.645Z,1014.16
2018-02-08T06:34:50.146Z,1014.16
2018-02-08T06:35:15.626Z,1014.15
2018-02-08T06:35:41.139Z,1014.2
2018-02-08T06:36:06.654Z,1014.22
2018-02-08T06:37:11.094Z,1014.19
2018-02-08T06:37:36.583Z,1014.22
2018-02-08T06:38:02.098Z,1014.19
2018-02-08T06:38:27.582Z,1014.25
2018-02-08T06:38:53.016Z,1014.28
2018-02-08T06:39:18.474Z,1014.23
2018-02-08T06:39:43.977Z,1014.21
2018-02-08T06:40:09.468Z,1014.23
2018-02-08T06:40:34.906Z,1014.22
2018-02-08T06:41:00.468Z,1014.23
2018-02-08T06:41:25.980Z,1014.2
2018-02-08T06:41:51.448Z,1014.17
2018-02-08T06:42:16.920Z,1014.2
2018-02-08T06:42:42.491Z,1014.23
2018-02-08T06:43:07.994Z,1014.21
2018-02-08T06:43:33.454Z,1014.18
2018-02-08T06:43:58.918Z,1014.17
2018-02-08T06:44:24.382Z,1014.19
2018-02-08T06:44:49.871Z,1014.19
2018-02-08T06:45:15.329Z,1014.19
2018-02-08T06:45:40.782Z,1014.19
2018-02-08T06:46:06.241Z,1014.21
2018-02-08T06:46:31.729Z,1014.17
2018-02-08T06:46:57.240Z,1014.21
2018-02-08T06:47:22.779Z,1014.2
2018-02-08T06:47:48.256Z,1014.24
2018-02-08T06:48:13.733Z,1014.19
2018-02-08T06:48:39.242Z,1014.22
2018-02-08T06:49:04.746Z,1014.24
2018-02-08T06:49:30.242Z,1014.26
2018-02-08T06:49:55.682Z,1014.28
2018-02-08T06:50:21.164Z,1014.29
2018-02-08T06:50:46.616Z,1014.25
2018-02-08T06:51:12.089Z,1014.24
2018-02-08T06:51:37.586Z,1014.27
2018-02-08T06:52:03.069Z,1014.3
2018-02-08T06:52:28.579Z,1014.31
2018-02-08T06:52:54.104Z,1014.32
2018-02-08T06:53:19.638Z,1014.28
2018-02-08T06:54:18.216Z,1014.32
2018-02-08T06:54:43.652Z,1014.28
2018-02-08T06:55:09.131Z,1014.32
2018-02-08T06:55:34.587Z,1014.31
2018-02-08T06:56:00.075Z,1014.33
2018-02-08T06:56:25.618Z,1014.3
2018-02-08T06:56:51.096Z,1014.32
2018-02-08T06:57:16.694Z,1014.29
2018-02-08T06:57:42.203Z,1014.33
2018-02-08T06:58:07.645Z,1014.32
2018-02-08T06:58:33.152Z,1014.31
2018-02-08T06:58:58.593Z,1014.31
2018-02-08T06:59:24.109Z,1014.34
2018-02-08T06:59:49.599Z,1014.32
2018-02-08T07:00:15.122Z,1014.34
2018-02-08T07:00:40.593Z,1014.32
2018-02-08T07:01:06.078Z,1014.31
2018-02-08T07:01:31.567Z,1014.35
2018-02-08T07:02:45.343Z,1014.37
2018-02-08T07:03:10.833Z,1014.39
2018-02-08T07:03:36.338Z,1014.33
2018-02-08T07:04:01.803Z,1014.34
2018-02-08T07:04:27.290Z,1014.36
2018-02-08T07:04:52.824Z,1014.4
2018-02-08T07:05:18.265Z,1014.36
2018-02-08T07:05:43.748Z,1014.37
2018-02-08T07:06:09.229Z,1014.37
2018-02-08T07:06:34.721Z,1014.34
2018-02-08T07:07:00.175Z,1014.37
2018-02-08T07:07:58.697Z,1014.36
2018-02-08T07:08:24.197Z,1014.36
2018-02-08T07:08:49.708Z,1014.36
2018-02-08T07:10:08.580Z,1014.37
2018-02-08T07:10:34.082Z,1014.37
2018-02-08T07:10:59.570Z,1014.35
2018-02-08T07:11:25.037Z,1014.38
2018-02-08T07:11:50.524Z,1014.34
2018-02-08T07:12:15.988Z,1014.38
2018-02-08T07:12:41.464Z,1014.37
2018-02-08T07:13:06.960Z,1014.33
2018-02-08T07:14:04.995Z,1014.41
2018-02-08T07:14:30.504Z,1014.39
2018-02-08T07:14:55.972Z,1014.43
2018-02-08T07:15:21.424Z,1014.42
2018-02-08T07:15:46.892Z,1014.48
2018-02-08T07:16:12.353Z,1014.45
2018-02-08T07:16:37.846Z,1014.52
2018-02-08T07:17:46.005Z,1014.53
2018-02-08T07:18:11.501Z,1014.55
2018-02-08T07:18:36.985Z,1014.53
2018-02-08T07:19:02.483Z,1014.48
2018-02-08T07:19:27.956Z,1014.54
2018-02-08T07:20:31.066Z,1014.54
2018-02-08T07:20:56.580Z,1014.59
2018-02-08T07:21:22.055Z,1014.61
2018-02-08T07:21:47.531Z,1014.57
2018-02-08T07:22:13.001Z,1014.59
2018-02-08T07:22:38.547Z,1014.55
2018-02-08T07:23:04.014Z,1014.54
2018-02-08T07:23:29.547Z,1014.54
2018-02-08T07:23:55.050Z,1014.55
2018-02-08T07:24:20.523Z,1014.55
2018-02-08T07:24:46.046Z,1014.53
2018-02-08T07:25:11.505Z,1014.54
2018-02-08T07:25:37.006Z,1014.58
2018-02-08T07:26:02.474Z,1014.6
2018-02-08T07:26:27.981Z,1014.62
2018-02-08T07:26:53.453Z,1014.63
2018-02-08T07:27:18.932Z,1014.59
2018-02-08T07:27:44.369Z,1014.62
2018-02-08T07:28:09.845Z,1014.57
2018-02-08T07:28:35.333Z,1014.62
2018-02-08T07:29:00.812Z,1014.62
2018-02-08T07:29:26.330Z,1014.63
2018-02-08T07:29:51.837Z,1014.64
2018-02-08T07:30:17.311Z,1014.66
2018-02-08T07:30:42.781Z,1014.7
2018-02-08T07:31:08.286Z,1014.66
2018-02-08T07:31:33.758Z,1014.7
2018-02-08T07:32:47.549Z,1014.69
2018-02-08T07:33:13.031Z,1014.74
2018-02-08T07:33:38.520Z,1014.66
2018-02-08T07:34:04.036Z,1014.66
2018-02-08T07:34:29.503Z,1014.69
2018-02-08T07:34:55.013Z,1014.69
2018-02-08T07:35:20.487Z,1014.61
2018-02-08T07:35:45.984Z,1014.66
2018-02-08T07:36:11.524Z,1014.65
2018-02-08T07:36:37.008Z,1014.64
2018-02-08T07:37:02.477Z,1014.62
2018-02-08T07:37:27.960Z,1014.6
2018-02-08T07:38:41.740Z,1014.66
2018-02-08T07:39:07.243Z,1014.71
2018-02-08T07:39:32.723Z,1014.68
2018-02-08T07:39:58.197Z,1014.66
2018-02-08T07:40:23.702Z,1014.66
2018-02-08T07:40:49.171Z,1014.7
2018-02-08T07:41:14.680Z,1014.71
2018-02-08T07:41:40.192Z,1014.71
2018-02-08T07:42:05.697Z,1014.72
2018-02-08T07:42:31.167Z,1014.7
2018-02-08T07:42:56.695Z,1014.74
2018-02-08T07:43:22.151Z,1014.69
2018-02-08T07:43:47.633Z,1014.72
2018-02-08T07:44:13.125Z,1014.7
2018-02-08T07:44:38.609Z,1014.7
2018-02-08T07:45:04.107Z,1014.69
2018-02-08T07:45:29.579Z,1014.69
2018-02-08T07:45:55.099Z,1014.72
2018-02-08T07:46:20.595Z,1014.72
2018-02-08T07:46:46.098Z,1014.78
2018-02-08T07:47:11.592Z,1014.75
2018-02-08T07:47:37.107Z,1014.75
2018-02-08T07:48:02.542Z,1014.76
2018-02-08T07:48:28.068Z,1014.77
2018-02-08T07:48:53.538Z,1014.73
2018-02-08T07:49:19.025Z,1014.75
2018-02-08T07:49:44.531Z,1014.78
2018-02-08T07:50:09.957Z,1014.81
2018-02-08T07:50:35.463Z,1014.78
2018-02-08T07:51:00.943Z,1014.76
2018-02-08T07:52:19.851Z,1014.86
2018-02-08T07:52:45.340Z,1014.85
2018-02-08T07:53:54.054Z,1014.81
2018-02-08T07:54:19.525Z,1014.83
2018-02-08T07:54:45.022Z,1014.85
2018-02-08T07:55:10.504Z,1014.86
2018-02-08T07:55:35.943Z,1014.83
2018-02-08T07:56:01.427Z,1014.86
2018-02-08T07:56:26.904Z,1014.84
2018-02-08T07:56:52.410Z,1014.85
2018-02-08T07:57:17.901Z,1014.88
2018-02-08T07:57:43.375Z,1014.88
2018-02-08T07:58:08.908Z,1014.86
2018-02-08T07:58:34.394Z,1014.86
2018-02-08T07:58:59.886Z,1014.83
2018-02-08T07:59:25.365Z,1014.86
2018-02-08T07:59:50.887Z,1014.86
2018-02-08T08:00:16.338Z,1014.81
2018-02-08T08:00:41.807Z,1014.8
2018-02-08T08:01:07.292Z,1014.83
2018-02-08T08:01:32.799Z,1014.83
2018-02-08T08:01:58.318Z,1014.83
2018-02-08T08:02:23.806Z,1014.82
2018-02-08T08:02:49.278Z,1014.82
2018-02-08T08:03:14.737Z,1014.83
2018-02-08T08:04:33.716Z,1014.86
2018-02-08T08:04:59.227Z,1014.84
2018-02-08T08:05:24.726Z,1014.85
2018-02-08T08:05:50.248Z,1014.84
2018-02-08T08:07:04.013Z,1014.86
2018-02-08T08:07:29.495Z,1014.88
2018-02-08T08:07:54.990Z,1014.85
2018-02-08T08:08:20.488Z,1014.86
2018-02-08T08:08:45.988Z,1014.88
2018-02-08T08:09:11.489Z,1014.88
2018-02-08T08:09:36.979Z,1014.88
2018-02-08T08:10:02.494Z,1014.89
2018-02-08T08:10:28.016Z,1014.9
2018-02-08T08:10:53.495Z,1014.89
2018-02-08T08:11:19.027Z,1014.86
2018-02-08T08:11:44.533Z,1014.91
2018-02-08T08:12:10.018Z,1014.88
2018-02-08T08:12:35.498Z,1014.91
2018-02-08T08:13:39.106Z,1014.93
2018-02-08T08:14:04.622Z,1014.93
2018-02-08T08:14:30.111Z,1014.95
2018-02-08T08:14:55.618Z,1014.95
2018-02-08T08:15:21.102Z,1014.96
2018-02-08T08:15:46.572Z,1014.99
2018-02-08T08:16:12.061Z,1015.01
2018-02-08T08:16:37.580Z,1015.01
2018-02-08T08:17:03.042Z,1015
2018-02-08T08:18:01.566Z,1015.02
2018-02-08T08:18:27.093Z,1015.03
2018-02-08T08:18:52.575Z,1015.02
2018-02-08T08:19:18.049Z,1015.02
2018-02-08T08:19:43.548Z,1015.02
2018-02-08T08:20:09.033Z,1014.99
2018-02-08T08:20:34.515Z,1015.02
2018-02-08T08:21:00.006Z,1015.02
2018-02-08T08:21:25.514Z,1015
2018-02-08T08:21:51.066Z,1015.06
2018-02-08T08:22:16.481Z,1015.04
2018-02-08T08:22:41.976Z,1015.02
2018-02-08T08:23:07.438Z,1015.03
2018-02-08T08:23:32.916Z,1015.07
2018-02-08T08:23:58.427Z,1015.1
2018-02-08T08:25:07.163Z,1015.09
2018-02-08T08:25:32.664Z,1015.04
2018-02-08T08:25:58.188Z,1015.03
2018-02-08T08:27:11.971Z,1015.02
2018-02-08T08:27:37.460Z,1015
2018-02-08T08:28:02.982Z,1015.02
2018-02-08T08:28:28.482Z,1015
2018-02-08T08:28:53.941Z,1014.99
2018-02-08T08:29:19.433Z,1015.05
2018-02-08T08:29:44.877Z,1015.01
2018-02-08T08:30:10.371Z,1015.02
2018-02-08T08:30:35.912Z,1015.04
2018-02-08T08:31:01.390Z,1015.05
2018-02-08T08:31:26.869Z,1015.06
2018-02-08T08:31:52.327Z,1015.04
2018-02-08T08:32:17.814Z,1015.08
2018-02-08T08:32:43.318Z,1015.05
2018-02-08T08:33:08.789Z,1015.07
2018-02-08T08:33:34.290Z,1015.09
2018-02-08T08:33:59.820Z,1015.09
2018-02-08T08:34:25.331Z,1015.07
2018-02-08T08:34:50.808Z,1015.08
2018-02-08T08:35:16.287Z,1015.08
2018-02-08T08:35:41.749Z,1015.06
2018-02-08T08:36:50.439Z,1015.08
2018-02-08T08:37:15.940Z,1015.04
2018-02-08T08:37:41.408Z,1015.08
2018-02-08T08:38:06.870Z,1015.07
2018-02-08T08:38:32.345Z,1015.07
2018-02-08T08:38:57.915Z,1015.04
2018-02-08T08:39:23.379Z,1015.06
2018-02-08T08:40:27.028Z,1015.07
2018-02-08T08:40:52.527Z,1015.04
2018-02-08T08:41:18.010Z,1015.04
2018-02-08T08:41:43.483Z,1015.06
2018-02-08T08:42:08.971Z,1015.04
2018-02-08T08:42:34.461Z,1015.03
2018-02-08T08:42:59.928Z,1015.02
2018-02-08T08:43:25.406Z,1015.02
2018-02-08T08:43:50.899Z,1015.01
2018-02-08T08:44:16.401Z,1015.03
2018-02-08T08:44:41.858Z,1015.03
2018-02-08T08:45:07.360Z,1015.03
2018-02-08T08:45:32.832Z,1015.05
2018-02-08T08:45:58.300Z,1015.05
2018-02-08T08:46:23.790Z,1015.01
2018-02-08T08:46:49.266Z,1015.03
2018-02-08T08:47:14.731Z,1015.02
2018-02-08T08:47:40.242Z,1015.04
2018-02-08T08:48:05.739Z,1015.05
2018-02-08T08:48:31.189Z,1015.02
2018-02-08T08:49:29.737Z,1015.03
2018-02-08T08:49:55.224Z,1015.02
2018-02-08T08:50:20.711Z,1014.98
2018-02-08T08:50:46.207Z,1014.96
2018-02-08T08:51:11.859Z,1014.95
2018-02-08T08:51:37.336Z,1014.98
2018-02-08T08:52:02.808Z,1014.97
2018-02-08T08:52:28.292Z,1014.92
2018-02-08T08:52:53.805Z,1014.95
2018-02-08T08:53:19.273Z,1014.9
2018-02-08T08:53:44.786Z,1014.99
2018-02-08T08:54:10.254Z,1014.98
2018-02-08T08:54:35.740Z,1014.97
2018-02-08T08:55:01.282Z,1014.96
2018-02-08T08:55:26.757Z,1014.91
2018-02-08T08:55:52.260Z,1015.01
2018-02-08T08:56:17.872Z,1014.97
2018-02-08T08:56:43.739Z,1014.99
2018-02-08T08:57:09.235Z,1015.01
2018-02-08T08:57:34.709Z,1015.02
2018-02-08T08:58:00.207Z,1015.02
2018-02-08T08:58:25.731Z,1015.06
2018-02-08T08:58:51.218Z,1015.01
2018-02-08T08:59:16.652Z,1015.05
2018-02-08T08:59:42.153Z,1015.03
2018-02-08T09:00:07.657Z,1015.02
2018-02-08T09:00:33.098Z,1015.04
2018-02-08T09:00:58.563Z,1015.05
2018-02-08T09:01:24.075Z,1015.03
2018-02-08T09:01:49.544Z,1015.08
2018-02-08T09:02:15.043Z,1015.08
2018-02-08T09:02:40.537Z,1015.07
2018-02-08T09:03:05.994Z,1015.05
2018-02-08T09:03:31.477Z,1015.06
2018-02-08T09:03:56.965Z,1015.05
2018-02-08T09:04:22.473Z,1015.07
2018-02-08T09:04:47.932Z,1015.04
2018-02-08T09:05:13.386Z,1015.06
2018-02-08T09:05:38.861Z,1015.06
2018-02-08T09:06:47.556Z,1015.12
2018-02-08T09:07:13.036Z,1015.1
2018-02-08T09:07:38.533Z,1015.1
2018-02-08T09:08:04.022Z,1015.08
2018-02-08T09:08:29.496Z,1015.14
2018-02-08T09:08:54.966Z,1015.11
2018-02-08T09:09:20.492Z,1015.12
2018-02-08T09:09:45.973Z,1015.12
2018-02-08T09:10:11.465Z,1015.14
2018-02-08T09:11:09.985Z,1015.13
2018-02-08T09:11:35.542Z,1015.14
2018-02-08T09:12:01.071Z,1015.14
2018-02-08T09:12:26.538Z,1015.18
2018-02-08T09:12:52.055Z,1015.18
2018-02-08T09:13:17.568Z,1015.18
2018-02-08T09:13:43.077Z,1015.19
2018-02-08T09:14:08.556Z,1015.17
2018-02-08T09:14:34.050Z,1015.16
2018-02-08T09:14:59.574Z,1015.17
2018-02-08T09:15:25.026Z,1015.18
2018-02-08T09:15:50.469Z,1015.17
2018-02-08T09:16:15.980Z,1015.2
2018-02-08T09:16:41.436Z,1015.19
2018-02-08T09:17:06.910Z,1015.16
2018-02-08T09:17:32.380Z,1015.25
2018-02-08T09:17:57.876Z,1015.19
2018-02-08T09:18:23.389Z,1015.26
2018-02-08T09:18:48.866Z,1015.23
2018-02-08T09:19:14.361Z,1015.22
2018-02-08T09:19:39.882Z,1015.25
2018-02-08T09:20:05.385Z,1015.22
2018-02-08T09:20:30.848Z,1015.24
2018-02-08T09:20:56.334Z,1015.24
2018-02-08T09:21:21.790Z,1015.23
2018-02-08T09:21:47.310Z,1015.19
2018-02-08T09:22:12.803Z,1015.22
2018-02-08T09:22:38.329Z,1015.24
2018-02-08T09:23:03.778Z,1015.28
2018-02-08T09:23:29.300Z,1015.23
2018-02-08T09:23:54.778Z,1015.26
2018-02-08T09:24:20.255Z,1015.27
2018-02-08T09:24:45.752Z,1015.26
2018-02-08T09:25:11.241Z,1015.27
2018-02-08T09:25:36.732Z,1015.27
2018-02-08T09:26:02.223Z,1015.28
2018-02-08T09:26:27.718Z,1015.27
2018-02-08T09:26:53.183Z,1015.28
2018-02-08T09:27:18.712Z,1015.33
2018-02-08T09:27:44.207Z,1015.3
2018-02-08T09:28:09.708Z,1015.25
2018-02-08T09:28:35.193Z,1015.28
2018-02-08T09:29:00.661Z,1015.28
2018-02-08T09:29:26.163Z,1015.25
2018-02-08T09:29:51.661Z,1015.25
2018-02-08T09:30:17.157Z,1015.26
2018-02-08T09:30:42.629Z,1015.27
2018-02-08T09:31:08.116Z,1015.25
2018-02-08T09:32:16.854Z,1015.24
2018-02-08T09:32:42.349Z,1015.28
2018-02-08T09:33:07.830Z,1015.28
2018-02-08T09:33:33.346Z,1015.25
2018-02-08T09:33:58.840Z,1015.26
2018-02-08T09:34:24.309Z,1015.26
2018-02-08T09:34:49.799Z,1015.3
2018-02-08T09:35:15.284Z,1015.3
2018-02-08T09:35:40.764Z,1015.31
2018-02-08T09:36:06.206Z,1015.29
2018-02-08T09:36:31.716Z,1015.25
2018-02-08T09:36:57.222Z,1015.28
2018-02-08T09:37:22.673Z,1015.27
2018-02-08T09:37:48.212Z,1015.27
2018-02-08T09:38:13.684Z,1015.25
2018-02-08T09:38:39.132Z,1015.23
2018-02-08T09:39:04.625Z,1015.24
2018-02-08T09:39:30.134Z,1015.24
2018-02-08T09:40:33.712Z,1015.23
2018-02-08T09:40:59.200Z,1015.24
2018-02-08T09:41:24.677Z,1015.23
2018-02-08T09:41:50.149Z,1015.2
2018-02-08T09:42:15.645Z,1015.22
2018-02-08T09:42:41.195Z,1015.2
2018-02-08T09:43:06.652Z,1015.2
2018-02-08T09:43:32.151Z,1015.19
2018-02-08T09:43:57.660Z,1015.21
2018-02-08T09:44:23.142Z,1015.19
2018-02-08T09:44:48.636Z,1015.19
2018-02-08T09:45:14.117Z,1015.18
2018-02-08T09:46:17.744Z,1015.19
2018-02-08T09:46:43.233Z,1015.23
2018-02-08T09:47:08.721Z,1015.22
2018-02-08T09:47:34.214Z,1015.21
2018-02-08T09:47:59.653Z,1015.21
2018-02-08T09:48:25.202Z,1015.19
2018-02-08T09:48:50.683Z,1015.19
2018-02-08T09:49:54.284Z,1015.19
2018-02-08T09:50:19.765Z,1015.19
2018-02-08T09:50:45.269Z,1015.17
2018-02-08T09:51:10.809Z,1015.15
2018-02-08T09:51:36.288Z,1015.15
2018-02-08T09:52:01.802Z,1015.16
2018-02-08T09:52:27.309Z,1015.16
2018-02-08T09:52:52.803Z,1015.17
2018-02-08T09:53:18.304Z,1015.13
2018-02-08T09:54:37.196Z,1015.15
2018-02-08T09:55:02.719Z,1015.14
2018-02-08T09:55:28.210Z,1015.13
2018-02-08T09:55:53.683Z,1015.16
2018-02-08T09:56:19.107Z,1015.16
2018-02-08T09:56:44.610Z,1015.18
2018-02-08T09:57:10.080Z,1015.19
2018-02-08T09:57:35.528Z,1015.16
2018-02-08T09:58:00.977Z,1015.15
2018-02-08T09:58:26.443Z,1015.19
2018-02-08T09:58:51.922Z,1015.18
2018-02-08T09:59:17.377Z,1015.19
2018-02-08T09:59:42.908Z,1015.2
2018-02-08T10:00:08.326Z,1015.24
2018-02-08T10:00:33.784Z,1015.21
2018-02-08T10:00:59.308Z,1015.15
2018-02-08T10:01:24.790Z,1015.2
2018-02-08T10:01:50.242Z,1015.19
2018-02-08T10:02:58.991Z,1015.18
2018-02-08T10:03:24.487Z,1015.17
2018-02-08T10:03:49.972Z,1015.15
2018-02-08T10:04:15.472Z,1015.15
2018-02-08T10:04:40.892Z,1015.13
2018-02-08T10:05:06.351Z,1015.15
2018-02-08T10:05:31.858Z,1015.15
2018-02-08T10:05:57.302Z,1015.18
2018-02-08T10:06:22.773Z,1015.14
2018-02-08T10:06:48.252Z,1015.11
2018-02-08T10:07:13.744Z,1015.11
2018-02-08T10:07:39.207Z,1015.11
2018-02-08T10:08:04.642Z,1015.12
2018-02-08T10:09:04.169Z,1015.13
2018-02-08T10:09:29.656Z,1015.17
2018-02-08T10:09:55.291Z,1015.13
2018-02-08T10:10:20.746Z,1015.14
2018-02-08T10:10:46.176Z,1015.11
2018-02-08T10:11:11.659Z,1015.12
2018-02-08T10:11:37.146Z,1015.14
2018-02-08T10:12:02.635Z,1015.12
2018-02-08T10:12:28.232Z,1015.08
2018-02-08T10:12:53.703Z,1015.08
2018-02-08T10:13:19.143Z,1015.09
2018-02-08T10:13:44.620Z,1015.09
2018-02-08T10:14:10.107Z,1015.09
2018-02-08T10:14:35.533Z,1015.1
2018-02-08T10:15:01.043Z,1015.07
2018-02-08T10:15:26.556Z,1015.04
2018-02-08T10:15:51.999Z,1015.06
2018-02-08T10:16:17.450Z,1015.07
2018-02-08T10:16:42.940Z,1015.06
2018-02-08T10:17:08.407Z,1015.07
2018-02-08T10:17:33.891Z,1015.04
2018-02-08T10:17:59.338Z,1015.03
2018-02-08T10:18:24.807Z,1015.07
2018-02-08T10:18:50.280Z,1015.03
2018-02-08T10:19:15.708Z,1015.08
2018-02-08T10:19:41.248Z,1015.15
2018-02-08T10:20:06.681Z,1015.09
2018-02-08T10:20:32.122Z,1015.11
2018-02-08T10:20:57.590Z,1015.11
2018-02-08T10:21:23.064Z,1015.14
2018-02-08T10:21:48.549Z,1015.11
2018-02-08T10:22:13.989Z,1015.12
2018-02-08T10:22:39.460Z,1015.12
2018-02-08T10:23:04.962Z,1015.08
2018-02-08T10:23:30.455Z,1015.07
2018-02-08T10:23:55.904Z,1015.11
2018-02-08T10:24:21.344Z,1015.1
2018-02-08T10:24:46.842Z,1015.12
2018-02-08T10:25:12.317Z,1015.09
2018-02-08T10:25:37.765Z,1015.14
2018-02-08T10:26:03.182Z,1015.11
2018-02-08T10:26:28.619Z,1015.11
2018-02-08T10:26:54.058Z,1015.11
2018-02-08T10:27:19.574Z,1015.11
2018-02-08T10:27:45.056Z,1015.11
2018-02-08T10:28:10.517Z,1015.11
2018-02-08T10:28:35.980Z,1015.13
2018-02-08T10:29:01.404Z,1015.1
2018-02-08T10:29:26.894Z,1015.09
2018-02-08T10:29:52.376Z,1015.09
2018-02-08T10:30:17.781Z,1015.11
2018-02-08T10:30:43.284Z,1015.13
2018-02-08T10:31:08.714Z,1015.11
2018-02-08T10:31:34.204Z,1015.13
2018-02-08T10:31:59.691Z,1015.14
2018-02-08T10:32:25.181Z,1015.13
2018-02-08T10:32:50.634Z,1015.12
2018-02-08T10:33:16.238Z,1015.14
2018-02-08T10:34:19.859Z,1015.15
2018-02-08T10:34:45.342Z,1015.11
2018-02-08T10:35:10.849Z,1015.11
2018-02-08T10:35:36.329Z,1015.12
2018-02-08T10:36:01.830Z,1015.14
2018-02-08T10:36:27.365Z,1015.14
2018-02-08T10:36:52.922Z,1015.17
2018-02-08T10:37:18.441Z,1015.15